sensor_id;sensor_type;location;lat;lon;timestamp;pressure;altitude;pressure_sealevel;temperature;humidity
32081;BME280;18593;51.426;7.030;2023-05-23T00:02:20;100621.81;;;18.33;61.27
32081;BME280;18593;51.426;7.030;2023-05-23T00:04:47;100623.69;;;18.33;61.01
32081;BME280;18593;51.426;7.030;2023-05-23T00:07:16;100622.06;;;18.32;60.59
32081;BME280;18593;51.426;7.030;2023-05-23T00:09:44;100620.69;;;18.29;60.37
32081;BME280;18593;51.426;7.030;2023-05-23T00:12:11;100613.94;;;18.26;60.02
32081;BME280;18593;51.426;7.030;2023-05-23T00:14:38;100633.06;;;18.25;60.29
32081;BME280;18593;51.426;7.030;2023-05-23T00:17:05;100625.50;;;18.22;60.32
32081;BME280;18593;51.426;7.030;2023-05-23T00:19:33;100633.03;;;18.20;60.20
32081;BME280;18593;51.426;7.030;2023-05-23T00:22:01;100633.03;;;18.20;60.20
32081;BME280;18593;51.426;7.030;2023-05-23T00:24:29;100642.47;;;18.17;60.48
32081;BME280;18593;51.426;7.030;2023-05-23T00:26:56;100645.69;;;18.14;60.44
32081;BME280;18593;51.426;7.030;2023-05-23T00:29:24;100638.94;;;18.12;60.30
32081;BME280;18593;51.426;7.030;2023-05-23T00:31:51;100636.47;;;18.10;60.05
32081;BME280;18593;51.426;7.030;2023-05-23T00:34:18;100644.81;;;18.09;60.14
32081;BME280;18593;51.426;7.030;2023-05-23T00:36:45;100644.28;;;18.07;60.08
32081;BME280;18593;51.426;7.030;2023-05-23T00:39:15;100640.16;;;17.99;60.22
32081;BME280;18593;51.426;7.030;2023-05-23T00:41:47;100643.66;;;17.99;59.86
32081;BME280;18593;51.426;7.030;2023-05-23T00:44:15;100647.38;;;17.93;59.72
32081;BME280;18593;51.426;7.030;2023-05-23T00:46:44;100647.38;;;17.93;60.00
32081;BME280;18593;51.426;7.030;2023-05-23T00:49:13;100645.78;;;17.92;59.81
32081;BME280;18593;51.426;7.030;2023-05-23T00:51:45;100651.41;;;17.91;59.90
32081;BME280;18593;51.426;7.030;2023-05-23T00:54:16;100650.31;;;17.87;60.07
32081;BME280;18593;51.426;7.030;2023-05-23T00:56:46;100655.94;;;17.85;60.04
32081;BME280;18593;51.426;7.030;2023-05-23T00:59:13;100661.91;;;17.87;59.88
32081;BME280;18593;51.426;7.030;2023-05-23T01:01:42;100660.84;;;17.88;59.98
32081;BME280;18593;51.426;7.030;2023-05-23T01:04:12;100662.72;;;17.88;60.07
32081;BME280;18593;51.426;7.030;2023-05-23T01:06:39;100655.44;;;17.88;59.90
32081;BME280;18593;51.426;7.030;2023-05-23T01:09:07;100655.69;;;17.87;59.94
32081;BME280;18593;51.426;7.030;2023-05-23T01:11:44;100652.75;;;17.88;59.81
32081;BME280;18593;51.426;7.030;2023-05-23T01:14:21;100653.81;;;17.87;59.95
32081;BME280;18593;51.426;7.030;2023-05-23T01:16:56;100656.50;;;17.87;59.98
32081;BME280;18593;51.426;7.030;2023-05-23T01:19:50;100647.34;;;17.88;59.89
32081;BME280;18593;51.426;7.030;2023-05-23T01:22:34;100655.69;;;17.87;60.06
32081;BME280;18593;51.426;7.030;2023-05-23T01:25:13;100659.22;;;17.87;59.95
32081;BME280;18593;51.426;7.030;2023-05-23T01:27:55;100654.88;;;17.86;60.18
32081;BME280;18593;51.426;7.030;2023-05-23T01:30:24;100654.56;;;17.83;59.76
32081;BME280;18593;51.426;7.030;2023-05-23T01:32:53;100660.22;;;17.81;59.83
32081;BME280;18593;51.426;7.030;2023-05-23T01:35:24;100656.69;;;17.81;59.65
32081;BME280;18593;51.426;7.030;2023-05-23T01:37:53;100659.13;;;17.77;59.90
32081;BME280;18593;51.426;7.030;2023-05-23T01:40:21;100653.19;;;17.80;59.97
32081;BME280;18593;51.426;7.030;2023-05-23T01:42:51;100656.69;;;17.81;60.12
32081;BME280;18593;51.426;7.030;2023-05-23T01:45:18;100656.97;;;17.79;60.01
32081;BME280;18593;51.426;7.030;2023-05-23T01:47:47;100656.16;;;17.79;60.00
32081;BME280;18593;51.426;7.030;2023-05-23T01:50:16;100659.66;;;17.79;60.19
32081;BME280;18593;51.426;7.030;2023-05-23T01:52:45;100656.41;;;17.77;59.90
32081;BME280;18593;51.426;7.030;2023-05-23T01:55:16;100653.44;;;17.79;60.19
32081;BME280;18593;51.426;7.030;2023-05-23T01:57:51;100656.97;;;17.79;60.15
32081;BME280;18593;51.426;7.030;2023-05-23T02:00:21;100653.44;;;17.79;60.23
32081;BME280;18593;51.426;7.030;2023-05-23T02:02:48;100661.88;;;17.82;60.33
32081;BME280;18593;51.426;7.030;2023-05-23T02:05:16;100663.47;;;17.83;60.54
32081;BME280;18593;51.426;7.030;2023-05-23T02:07:44;100669.69;;;17.84;60.55
32081;BME280;18593;51.426;7.030;2023-05-23T02:10:12;100669.97;;;17.82;60.55
32081;BME280;18593;51.426;7.030;2023-05-23T02:12:39;100671.84;;;17.82;60.58
32081;BME280;18593;51.426;7.030;2023-05-23T02:15:08;100674.78;;;17.80;60.67
32081;BME280;18593;51.426;7.030;2023-05-23T02:17:36;100672.03;;;17.75;61.00
32081;BME280;18593;51.426;7.030;2023-05-23T02:20:06;100661.22;;;17.75;60.86
32081;BME280;18593;51.426;7.030;2023-05-23T02:22:34;100669.91;;;17.77;60.73
32081;BME280;18593;51.426;7.030;2023-05-23T02:25:01;100671.53;;;17.78;61.07
32081;BME280;18593;51.426;7.030;2023-05-23T02:27:28;100668.56;;;17.80;61.23
32081;BME280;18593;51.426;7.030;2023-05-23T02:29:56;100672.06;;;17.80;61.17
32081;BME280;18593;51.426;7.030;2023-05-23T02:32:24;100671.53;;;17.78;61.02
32081;BME280;18593;51.426;7.030;2023-05-23T02:34:52;100672.59;;;17.77;61.33
32081;BME280;18593;51.426;7.030;2023-05-23T02:37:19;100673.66;;;17.76;61.26
32081;BME280;18593;51.426;7.030;2023-05-23T02:39:47;100686.31;;;17.75;61.20
32081;BME280;18593;51.426;7.030;2023-05-23T02:42:14;100684.44;;;17.76;61.25
32081;BME280;18593;51.426;7.030;2023-05-23T02:44:41;100674.97;;;17.73;61.50
32081;BME280;18593;51.426;7.030;2023-05-23T02:47:09;100674.72;;;17.75;61.17
32081;BME280;18593;51.426;7.030;2023-05-23T02:49:37;100682.25;;;17.73;61.31
32081;BME280;18593;51.426;7.030;2023-05-23T02:52:06;100681.66;;;17.71;61.14
32081;BME280;18593;51.426;7.030;2023-05-23T02:54:33;100687.06;;;17.71;61.36
32081;BME280;18593;51.426;7.030;2023-05-23T02:57:01;100697.03;;;17.70;61.16
32081;BME280;18593;51.426;7.030;2023-05-23T02:59:32;100689.16;;;17.64;61.14
32081;BME280;18593;51.426;7.030;2023-05-23T03:02:00;100694.03;;;17.67;61.02
32081;BME280;18593;51.426;7.030;2023-05-23T03:04:27;100692.16;;;17.67;60.72
32081;BME280;18593;51.426;7.030;2023-05-23T03:06:55;100696.47;;;17.68;60.55
32081;BME280;18593;51.426;7.030;2023-05-23T03:09:24;100687.56;;;17.68;60.51
32081;BME280;18593;51.426;7.030;2023-05-23T03:11:51;100700.47;;;17.66;60.26
32081;BME280;18593;51.426;7.030;2023-05-23T03:14:19;100706.69;;;17.66;60.38
32081;BME280;18593;51.426;7.030;2023-05-23T03:16:48;100705.88;;;17.66;60.24
32081;BME280;18593;51.426;7.030;2023-05-23T03:19:15;100695.09;;;17.66;59.87
32081;BME280;18593;51.426;7.030;2023-05-23T03:21:42;100699.94;;;17.64;60.02
32081;BME280;18593;51.426;7.030;2023-05-23T03:24:11;100689.09;;;17.59;59.92
32081;BME280;18593;51.426;7.030;2023-05-23T03:26:38;100699.28;;;17.57;59.95
32081;BME280;18593;51.426;7.030;2023-05-23T03:29:05;100702.84;;;17.57;59.93
32081;BME280;18593;51.426;7.030;2023-05-23T03:31:33;100704.69;;;17.57;59.92
32081;BME280;18593;51.426;7.030;2023-05-23T03:34:00;100709.53;;;17.55;60.02
32081;BME280;18593;51.426;7.030;2023-05-23T03:36:27;100714.38;;;17.53;60.21
32081;BME280;18593;51.426;7.030;2023-05-23T03:38:54;100703.53;;;17.47;60.16
32081;BME280;18593;51.426;7.030;2023-05-23T03:41:23;100724.50;;;17.45;60.33
32081;BME280;18593;51.426;7.030;2023-05-23T03:43:51;100713.72;;;17.45;60.45
32081;BME280;18593;51.426;7.030;2023-05-23T03:46:18;100724.19;;;17.42;60.53
32081;BME280;18593;51.426;7.030;2023-05-23T03:48:45;100719.88;;;17.41;60.66
32081;BME280;18593;51.426;7.030;2023-05-23T03:51:13;100720.94;;;17.40;60.92
32081;BME280;18593;51.426;7.030;2023-05-23T03:53:40;100729.53;;;17.37;61.11
32081;BME280;18593;51.426;7.030;2023-05-23T03:56:08;100738.69;;;17.36;61.24
32081;BME280;18593;51.426;7.030;2023-05-23T03:58:37;100734.91;;;17.37;61.25
32081;BME280;18593;51.426;7.030;2023-05-23T04:01:10;100738.19;;;17.39;61.60
32081;BME280;18593;51.426;7.030;2023-05-23T04:03:39;100746.53;;;17.37;61.49
32081;BME280;18593;51.426;7.030;2023-05-23T04:06:07;100754.38;;;17.39;61.70
32081;BME280;18593;51.426;7.030;2023-05-23T04:08:37;100748.97;;;17.39;61.99
32081;BME280;18593;51.426;7.030;2023-05-23T04:11:06;100742.78;;;17.38;62.26
32081;BME280;18593;51.426;7.030;2023-05-23T04:13:37;100746.28;;;17.39;62.48
32081;BME280;18593;51.426;7.030;2023-05-23T04:16:05;100744.66;;;17.38;62.79
32081;BME280;18593;51.426;7.030;2023-05-23T04:18:32;100747.59;;;17.36;62.92
32081;BME280;18593;51.426;7.030;2023-05-23T04:21:01;100745.41;;;17.33;63.07
32081;BME280;18593;51.426;7.030;2023-05-23T04:23:29;100757.22;;;17.32;63.06
32081;BME280;18593;51.426;7.030;2023-05-23T04:25:56;100754.78;;;17.31;63.11
32081;BME280;18593;51.426;7.030;2023-05-23T04:28:26;100749.66;;;17.29;63.21
32081;BME280;18593;51.426;7.030;2023-05-23T04:30:55;100748.84;;;17.29;63.10
32081;BME280;18593;51.426;7.030;2023-05-23T04:33:26;100758.00;;;17.28;63.05
32081;BME280;18593;51.426;7.030;2023-05-23T04:35:55;100755.53;;;17.26;62.92
32081;BME280;18593;51.426;7.030;2023-05-23T04:38:23;100758.22;;;17.26;62.98
32081;BME280;18593;51.426;7.030;2023-05-23T04:40:51;100766.09;;;17.28;63.09
32081;BME280;18593;51.426;7.030;2023-05-23T04:43:37;100757.16;;;17.27;63.27
32081;BME280;18593;51.426;7.030;2023-05-23T04:46:37;100761.19;;;17.24;63.01
32081;BME280;18593;51.426;7.030;2023-05-23T04:49:30;100754.97;;;17.24;62.99
32081;BME280;18593;51.426;7.030;2023-05-23T04:51:59;100754.72;;;17.25;63.17
32081;BME280;18593;51.426;7.030;2023-05-23T04:54:28;100760.38;;;17.24;62.92
32081;BME280;18593;51.426;7.030;2023-05-23T04:56:58;100758.97;;;17.21;62.86
32081;BME280;18593;51.426;7.030;2023-05-23T04:59:27;100759.47;;;17.18;63.00
32081;BME280;18593;51.426;7.030;2023-05-23T05:01:55;100771.56;;;17.16;63.28
32081;BME280;18593;51.426;7.030;2023-05-23T05:04:22;100777.44;;;17.13;63.34
32081;BME280;18593;51.426;7.030;2023-05-23T05:06:50;100770.41;;;17.12;63.44
32081;BME280;18593;51.426;7.030;2023-05-23T05:09:18;100778.75;;;17.10;63.19
32081;BME280;18593;51.426;7.030;2023-05-23T05:11:47;100772.03;;;17.13;63.18
32081;BME280;18593;51.426;7.030;2023-05-23T05:14:15;100777.44;;;17.13;63.49
32081;BME280;18593;51.426;7.030;2023-05-23T05:16:43;100772.88;;;17.13;63.30
32081;BME280;18593;51.426;7.030;2023-05-23T05:19:13;100773.69;;;17.14;63.30
32081;BME280;18593;51.426;7.030;2023-05-23T05:21:40;100790.44;;;17.16;63.38
32081;BME280;18593;51.426;7.030;2023-05-23T05:24:07;100786.91;;;17.15;63.19
32081;BME280;18593;51.426;7.030;2023-05-23T05:26:36;100791.50;;;17.15;63.14
32081;BME280;18593;51.426;7.030;2023-05-23T05:29:03;100791.97;;;17.12;63.30
32081;BME280;18593;51.426;7.030;2023-05-23T05:31:31;100791.97;;;17.12;63.42
32081;BME280;18593;51.426;7.030;2023-05-23T05:33:58;100806.03;;;17.14;63.70
32081;BME280;18593;51.426;7.030;2023-05-23T05:36:27;100808.41;;;17.10;63.54
32081;BME280;18593;51.426;7.030;2023-05-23T05:38:57;100806.53;;;17.11;63.56
32081;BME280;18593;51.426;7.030;2023-05-23T05:41:25;100804.09;;;17.09;63.75
32081;BME280;18593;51.426;7.030;2023-05-23T05:43:53;100815.59;;;17.05;63.79
32081;BME280;18593;51.426;7.030;2023-05-23T05:46:20;100810.69;;;17.02;63.65
32081;BME280;18593;51.426;7.030;2023-05-23T05:48:49;100814.19;;;17.02;63.70
32081;BME280;18593;51.426;7.030;2023-05-23T05:51:17;100812.91;;;17.05;63.89
32081;BME280;18593;51.426;7.030;2023-05-23T05:53:46;100819.09;;;17.05;63.83
32081;BME280;18593;51.426;7.030;2023-05-23T05:56:15;100806.94;;;17.03;63.69
32081;BME280;18593;51.426;7.030;2023-05-23T05:58:42;100819.09;;;17.05;63.66
32081;BME280;18593;51.426;7.030;2023-05-23T06:01:12;100817.22;;;17.06;63.44
32081;BME280;18593;51.426;7.030;2023-05-23T06:03:41;100816.16;;;17.07;63.40
32081;BME280;18593;51.426;7.030;2023-05-23T06:06:08;100816.97;;;17.07;63.53
32081;BME280;18593;51.426;7.030;2023-05-23T06:08:38;100819.44;;;17.09;63.70
32081;BME280;18593;51.426;7.030;2023-05-23T06:11:10;100815.94;;;17.08;63.48
32081;BME280;18593;51.426;7.030;2023-05-23T06:13:38;100821.31;;;17.08;63.51
32081;BME280;18593;51.426;7.030;2023-05-23T06:16:05;100813.47;;;17.07;63.37
32081;BME280;18593;51.426;7.030;2023-05-23T06:18:32;100818.56;;;17.03;63.37
32081;BME280;18593;51.426;7.030;2023-05-23T06:21:00;100815.84;;;17.03;63.39
32081;BME280;18593;51.426;7.030;2023-05-23T06:23:27;100817.47;;;17.04;63.26
32081;BME280;18593;51.426;7.030;2023-05-23T06:25:55;100819.91;;;17.06;63.09
32081;BME280;18593;51.426;7.030;2023-05-23T06:28:23;100822.94;;;17.09;63.27
32081;BME280;18593;51.426;7.030;2023-05-23T06:30:51;100828.00;;;17.06;63.29
32081;BME280;18593;51.426;7.030;2023-05-23T06:33:18;100825.31;;;17.06;63.34
32081;BME280;18593;51.426;7.030;2023-05-23T06:35:47;100829.63;;;17.07;63.29
32081;BME280;18593;51.426;7.030;2023-05-23T06:38:15;100825.78;;;17.03;62.68
32081;BME280;18593;51.426;7.030;2023-05-23T06:40:42;100838.16;;;16.98;62.22
32081;BME280;18593;51.426;7.030;2023-05-23T06:43:09;100843.53;;;16.98;62.63
32081;BME280;18593;51.426;7.030;2023-05-23T06:45:53;100850.31;;;17.01;62.83
32081;BME280;18593;51.426;7.030;2023-05-23T06:48:21;100861.06;;;17.01;62.67
32081;BME280;18593;51.426;7.030;2023-05-23T06:50:48;100848.34;;;16.96;62.48
32081;BME280;18593;51.426;7.030;2023-05-23T06:53:17;100862.88;;;16.95;61.87
32081;BME280;18593;51.426;7.030;2023-05-23T06:55:45;100863.69;;;16.96;61.78
32081;BME280;18593;51.426;7.030;2023-05-23T06:58:15;100860.19;;;16.95;61.68
32081;BME280;18593;51.426;7.030;2023-05-23T07:00:42;100865.81;;;16.94;61.80
32081;BME280;18593;51.426;7.030;2023-05-23T07:03:17;100871.22;;;16.94;61.79
32081;BME280;18593;51.426;7.030;2023-05-23T07:05:44;100872.84;;;16.95;61.67
32081;BME280;18593;51.426;7.030;2023-05-23T07:08:11;100869.34;;;16.94;61.59
32081;BME280;18593;51.426;7.030;2023-05-23T07:10:42;100876.00;;;16.92;61.30
32081;BME280;18593;51.426;7.030;2023-05-23T07:13:29;100882.22;;;16.92;61.15
32081;BME280;18593;51.426;7.030;2023-05-23T07:15:57;100885.97;;;16.91;61.64
32081;BME280;18593;51.426;7.030;2023-05-23T07:18:25;100892.69;;;16.89;61.89
32081;BME280;18593;51.426;7.030;2023-05-23T07:20:53;100882.13;;;16.87;61.58
32081;BME280;18593;51.426;7.030;2023-05-23T07:23:22;100883.75;;;16.88;61.45
32081;BME280;18593;51.426;7.030;2023-05-23T07:25:50;100889.72;;;16.90;61.96
32081;BME280;18593;51.426;7.030;2023-05-23T07:28:24;100893.25;;;16.91;61.80
32081;BME280;18593;51.426;7.030;2023-05-23T07:30:54;100890.22;;;16.87;61.65
32081;BME280;18593;51.426;7.030;2023-05-23T07:33:22;100899.69;;;16.90;61.74
32081;BME280;18593;51.426;7.030;2023-05-23T07:35:52;100898.28;;;16.87;61.61
32081;BME280;18593;51.426;7.030;2023-05-23T07:38:19;100905.31;;;16.88;61.85
32081;BME280;18593;51.426;7.030;2023-05-23T07:40:46;100901.56;;;16.89;61.94
32081;BME280;18593;51.426;7.030;2023-05-23T07:43:14;100905.91;;;16.90;61.71
32081;BME280;18593;51.426;7.030;2023-05-23T07:45:41;100909.88;;;16.88;61.67
32081;BME280;18593;51.426;7.030;2023-05-23T07:48:08;100916.09;;;16.88;61.74
32081;BME280;18593;51.426;7.030;2023-05-23T07:50:38;100920.66;;;16.88;61.62
32081;BME280;18593;51.426;7.030;2023-05-23T07:53:08;100925.22;;;16.87;61.68
32081;BME280;18593;51.426;7.030;2023-05-23T07:55:35;100919.53;;;16.84;61.55
32081;BME280;18593;51.426;7.030;2023-05-23T07:58:03;100933.72;;;16.79;61.13
32081;BME280;18593;51.426;7.030;2023-05-23T08:00:31;100932.31;;;16.77;60.88
32081;BME280;18593;51.426;7.030;2023-05-23T08:03:07;100935.00;;;16.77;61.00
32081;BME280;18593;51.426;7.030;2023-05-23T08:05:39;100932.88;;;16.79;61.22
32081;BME280;18593;51.426;7.030;2023-05-23T08:08:08;100944.50;;;16.79;61.45
32081;BME280;18593;51.426;7.030;2023-05-23T08:10:36;100942.84;;;16.78;61.36
32081;BME280;18593;51.426;7.030;2023-05-23T08:13:09;100941.81;;;16.79;61.46
32081;BME280;18593;51.426;7.030;2023-05-23T08:15:47;100947.66;;;16.76;61.10
32081;BME280;18593;51.426;7.030;2023-05-23T08:18:17;100954.09;;;16.75;61.23
32081;BME280;18593;51.426;7.030;2023-05-23T08:20:44;100949.78;;;16.74;61.40
32081;BME280;18593;51.426;7.030;2023-05-23T08:23:13;100954.56;;;16.72;61.63
32081;BME280;18593;51.426;7.030;2023-05-23T08:25:40;100971.34;;;16.74;61.59
32081;BME280;18593;51.426;7.030;2023-05-23T08:28:07;100962.19;;;16.75;61.40
32081;BME280;18593;51.426;7.030;2023-05-23T08:30:44;100964.06;;;16.75;61.16
32081;BME280;18593;51.426;7.030;2023-05-23T08:33:11;100970.38;;;16.68;61.20
32081;BME280;18593;51.426;7.030;2023-05-23T08:35:41;100962.28;;;16.68;61.02
32081;BME280;18593;51.426;7.030;2023-05-23T08:38:13;100970.75;;;16.60;60.93
32081;BME280;18593;51.426;7.030;2023-05-23T08:40:51;100972.84;;;16.58;61.31
32081;BME280;18593;51.426;7.030;2023-05-23T08:43:19;100972.03;;;16.58;61.39
32081;BME280;18593;51.426;7.030;2023-05-23T08:45:48;100974.38;;;16.54;61.24
32081;BME280;18593;51.426;7.030;2023-05-23T08:48:19;100982.13;;;16.51;61.72
32081;BME280;18593;51.426;7.030;2023-05-23T08:50:50;100985.41;;;16.53;61.59
32081;BME280;18593;51.426;7.030;2023-05-23T08:53:26;100978.63;;;16.50;61.42
32081;BME280;18593;51.426;7.030;2023-05-23T08:56:03;100987.75;;;16.49;61.32
32081;BME280;18593;51.426;7.030;2023-05-23T08:58:40;100987.16;;;16.47;61.52
32081;BME280;18593;51.426;7.030;2023-05-23T09:01:09;100986.50;;;16.40;61.51
32081;BME280;18593;51.426;7.030;2023-05-23T09:03:37;100991.88;;;16.40;61.47
32081;BME280;18593;51.426;7.030;2023-05-23T09:06:11;101000.66;;;16.35;61.64
32081;BME280;18593;51.426;7.030;2023-05-23T09:08:41;101001.69;;;16.34;61.62
32081;BME280;18593;51.426;7.030;2023-05-23T09:11:12;101006.41;;;16.27;61.58
32081;BME280;18593;51.426;7.030;2023-05-23T09:13:40;101007.47;;;16.26;61.68
32081;BME280;18593;51.426;7.030;2023-05-23T09:16:10;101007.69;;;16.25;61.75
32081;BME280;18593;51.426;7.030;2023-05-23T09:18:43;101017.06;;;16.22;61.92
32081;BME280;18593;51.426;7.030;2023-05-23T09:21:14;101023.25;;;16.22;61.96
32081;BME280;18593;51.426;7.030;2023-05-23T09:24:12;101022.69;;;16.20;61.71
32081;BME280;18593;51.426;7.030;2023-05-23T09:26:39;101030.97;;;16.19;61.78
32081;BME280;18593;51.426;7.030;2023-05-23T09:29:06;101024.78;;;16.18;61.53
32081;BME280;18593;51.426;7.030;2023-05-23T09:31:34;101021.25;;;16.18;61.21
32081;BME280;18593;51.426;7.030;2023-05-23T09:34:02;101024.78;;;16.18;60.82
32081;BME280;18593;51.426;7.030;2023-05-23T09:36:32;101023.97;;;16.18;61.05
32081;BME280;18593;51.426;7.030;2023-05-23T09:39:02;101025.13;;;16.22;61.08
32081;BME280;18593;51.426;7.030;2023-05-23T09:41:33;101027.81;;;16.22;60.92
32081;BME280;18593;51.426;7.030;2023-05-23T09:44:06;101017.97;;;16.28;60.98
32081;BME280;18593;51.426;7.030;2023-05-23T09:46:35;101023.72;;;16.31;60.60
32081;BME280;18593;51.426;7.030;2023-05-23T09:49:14;101026.16;;;16.33;60.42
32081;BME280;18593;51.426;7.030;2023-05-23T09:51:43;101030.28;;;16.35;60.29
32081;BME280;18593;51.426;7.030;2023-05-23T09:54:22;101032.72;;;16.37;60.04
32081;BME280;18593;51.426;7.030;2023-05-23T09:56:52;101027.59;;;16.35;59.84
32081;BME280;18593;51.426;7.030;2023-05-23T09:59:22;101024.09;;;16.35;60.06
32081;BME280;18593;51.426;7.030;2023-05-23T10:01:56;101030.75;;;16.32;59.98
32081;BME280;18593;51.426;7.030;2023-05-23T10:04:30;101037.41;;;16.30;59.86
32081;BME280;18593;51.426;7.030;2023-05-23T10:07:05;101033.06;;;16.29;59.87
32081;BME280;18593;51.426;7.030;2023-05-23T10:09:35;101046.22;;;16.25;59.76
32081;BME280;18593;51.426;7.030;2023-05-23T10:12:43;101053.44;;;16.25;59.85
32081;BME280;18593;51.426;7.030;2023-05-23T10:15:14;101051.69;;;16.18;59.75
32081;BME280;18593;51.426;7.030;2023-05-23T10:18:02;101046.78;;;16.15;59.74
32081;BME280;18593;51.426;7.030;2023-05-23T10:20:33;101052.38;;;16.14;59.54
32081;BME280;18593;51.426;7.030;2023-05-23T10:23:02;101051.00;;;16.11;59.36
32081;BME280;18593;51.426;7.030;2023-05-23T10:25:31;101059.16;;;16.05;58.94
32081;BME280;18593;51.426;7.030;2023-05-23T10:28:01;101056.47;;;16.05;59.29
32081;BME280;18593;51.426;7.030;2023-05-23T10:30:30;101055.66;;;16.04;59.21
32081;BME280;18593;51.426;7.030;2023-05-23T10:32:58;101061.03;;;16.04;59.17
32081;BME280;18593;51.426;7.030;2023-05-23T10:35:39;101058.94;;;16.06;58.63
32081;BME280;18593;51.426;7.030;2023-05-23T10:38:12;101059.53;;;16.08;58.93
32081;BME280;18593;51.426;7.030;2023-05-23T10:40:53;101060.09;;;16.10;59.04
32081;BME280;18593;51.426;7.030;2023-05-23T10:43:35;101061.75;;;16.11;58.04
32081;BME280;18593;51.426;7.030;2023-05-23T10:46:07;101060.59;;;16.07;56.02
32081;BME280;18593;51.426;7.030;2023-05-23T10:48:40;101055.06;;;16.14;56.45
32081;BME280;18593;51.426;7.030;2023-05-23T10:51:09;101060.13;;;16.22;56.36
32081;BME280;18593;51.426;7.030;2023-05-23T10:53:38;101064.31;;;16.30;56.27
32081;BME280;18593;51.426;7.030;2023-05-23T10:56:07;101071.69;;;16.34;56.24
32081;BME280;18593;51.426;7.030;2023-05-23T10:58:38;101069.00;;;16.34;55.63
32081;BME280;18593;51.426;7.030;2023-05-23T11:01:07;101072.75;;;16.33;55.97
32081;BME280;18593;51.426;7.030;2023-05-23T11:03:36;101063.63;;;16.34;56.03
32081;BME280;18593;51.426;7.030;2023-05-23T11:06:04;101059.66;;;16.37;56.53
32081;BME280;18593;51.426;7.030;2023-05-23T11:08:39;101068.91;;;16.41;55.97
32081;BME280;18593;51.426;7.030;2023-05-23T11:11:10;101078.97;;;16.45;55.89
32081;BME280;18593;51.426;7.030;2023-05-23T11:13:58;101070.41;;;16.48;55.66
32081;BME280;18593;51.426;7.030;2023-05-23T11:16:30;101079.06;;;16.51;55.70
32081;BME280;18593;51.426;7.030;2023-05-23T11:19:20;101075.56;;;16.50;55.63
32081;BME280;18593;51.426;7.030;2023-05-23T11:21:51;101075.56;;;16.50;55.59
32081;BME280;18593;51.426;7.030;2023-05-23T11:24:19;101076.38;;;16.51;55.57
32081;BME280;18593;51.426;7.030;2023-05-23T11:26:51;101075.78;;;16.48;54.87
32081;BME280;18593;51.426;7.030;2023-05-23T11:29:21;101073.91;;;16.49;54.95
32081;BME280;18593;51.426;7.030;2023-05-23T11:31:49;101076.59;;;16.49;55.54
32081;BME280;18593;51.426;7.030;2023-05-23T11:34:17;101080.84;;;16.45;56.11
32081;BME280;18593;51.426;7.030;2023-05-23T11:36:44;101081.41;;;16.47;55.73
32081;BME280;18593;51.426;7.030;2023-05-23T11:39:13;101077.66;;;16.48;55.61
32081;BME280;18593;51.426;7.030;2023-05-23T11:41:41;101082.22;;;16.47;55.28
32081;BME280;18593;51.426;7.030;2023-05-23T11:44:12;101090.56;;;16.46;54.91
32081;BME280;18593;51.426;7.030;2023-05-23T11:46:40;101087.84;;;16.46;55.16
32081;BME280;18593;51.426;7.030;2023-05-23T11:49:11;101082.22;;;16.47;54.72
32081;BME280;18593;51.426;7.030;2023-05-23T11:51:38;101091.38;;;16.46;54.73
32081;BME280;18593;51.426;7.030;2023-05-23T11:54:05;101089.72;;;16.45;53.76
32081;BME280;18593;51.426;7.030;2023-05-23T11:56:39;101085.38;;;16.44;54.23
32081;BME280;18593;51.426;7.030;2023-05-23T11:59:06;101089.25;;;16.48;54.43
32081;BME280;18593;51.426;7.030;2023-05-23T12:01:36;101087.97;;;16.51;54.35
32081;BME280;18593;51.426;7.030;2023-05-23T12:04:10;101097.22;;;16.55;54.18
32081;BME280;18593;51.426;7.030;2023-05-23T12:06:39;101094.03;;;16.58;54.29
32081;BME280;18593;51.426;7.030;2023-05-23T12:09:06;101089.16;;;16.55;53.17
32081;BME280;18593;51.426;7.030;2023-05-23T12:11:34;101100.94;;;16.54;52.91
32081;BME280;18593;51.426;7.030;2023-05-23T12:14:02;101095.34;;;16.56;53.20
32081;BME280;18593;51.426;7.030;2023-05-23T12:16:31;101104.25;;;16.56;52.62
32081;BME280;18593;51.426;7.030;2023-05-23T12:19:00;101093.81;;;16.60;52.87
32081;BME280;18593;51.426;7.030;2023-05-23T12:21:41;101096.75;;;16.70;52.41
32081;BME280;18593;51.426;7.030;2023-05-23T12:24:15;101094.75;;;16.77;53.45
32081;BME280;18593;51.426;7.030;2023-05-23T12:26:51;101096.19;;;16.80;53.18
32081;BME280;18593;51.426;7.030;2023-05-23T12:29:19;101098.97;;;16.85;52.12
32081;BME280;18593;51.426;7.030;2023-05-23T12:31:49;101091.81;;;16.90;52.00
32081;BME280;18593;51.426;7.030;2023-05-23T12:34:18;101089.22;;;16.95;50.52
32081;BME280;18593;51.426;7.030;2023-05-23T12:36:47;101093.66;;;17.02;51.42
32081;BME280;18593;51.426;7.030;2023-05-23T12:39:23;101087.44;;;17.01;50.24
32081;BME280;18593;51.426;7.030;2023-05-23T12:41:52;101095.28;;;17.03;51.03
32081;BME280;18593;51.426;7.030;2023-05-23T12:44:21;101090.25;;;17.06;50.85
32081;BME280;18593;51.426;7.030;2023-05-23T12:46:48;101094.81;;;17.06;48.74
32081;BME280;18593;51.426;7.030;2023-05-23T12:49:16;101088.72;;;17.10;48.23
32081;BME280;18593;51.426;7.030;2023-05-23T12:51:43;101098.53;;;17.16;48.58
32081;BME280;18593;51.426;7.030;2023-05-23T12:54:12;101083.63;;;17.25;49.45
32081;BME280;18593;51.426;7.030;2023-05-23T12:56:39;101085.13;;;17.33;48.54
32081;BME280;18593;51.426;7.030;2023-05-23T12:59:09;101090.00;;;17.36;48.41
32081;BME280;18593;51.426;7.030;2023-05-23T13:01:37;101084.16;;;17.39;47.38
32081;BME280;18593;51.426;7.030;2023-05-23T13:04:04;101087.50;;;17.46;46.54
32081;BME280;18593;51.426;7.030;2023-05-23T13:06:31;101088.66;;;17.50;46.21